sensor_id;sensor_type;location;lat;lon;timestamp;P1;durP1;ratioP1;P2;durP2;ratioP2
20095;SDS011;10207;50.942;6.900;2024-03-02T00:01:32;2.63;;;1.88;;
20095;SDS011;10207;50.942;6.900;2024-03-02T00:03:58;1.65;;;1.55;;
20095;SDS011;10207;50.942;6.900;2024-03-02T00:06:24;1.63;;;1.50;;
20095;SDS011;10207;50.942;6.900;2024-03-02T00:08:50;3.65;;;1.80;;
20095;SDS011;10207;50.942;6.900;2024-03-02T00:11:16;3.35;;;1.90;;
20095;SDS011;10207;50.942;6.900;2024-03-02T00:13:44;2.35;;;1.70;;
20095;SDS011;10207;50.942;6.900;2024-03-02T00:16:11;3.70;;;3.45;;
20095;SDS011;10207;50.942;6.900;2024-03-02T00:18:36;6.15;;;2.33;;
20095;SDS011;10207;50.942;6.900;2024-03-02T00:21:03;4.35;;;2.05;;
20095;SDS011;10207;50.942;6.900;2024-03-02T00:23:29;3.08;;;1.90;;
20095;SDS011;10207;50.942;6.900;2024-03-02T00:25:56;2.80;;;1.92;;
20095;SDS011;10207;50.942;6.900;2024-03-02T00:31:07;3.47;;;1.92;;
20095;SDS011;10207;50.942;6.900;2024-03-02T00:33:36;3.38;;;1.60;;
20095;SDS011;10207;50.942;6.900;2024-03-02T00:36:03;2.42;;;1.60;;
20095;SDS011;10207;50.942;6.900;2024-03-02T00:38:30;6.18;;;1.80;;
20095;SDS011;10207;50.942;6.900;2024-03-02T00:40:59;2.08;;;1.88;;
20095;SDS011;10207;50.942;6.900;2024-03-02T00:46:06;2.60;;;2.10;;
20095;SDS011;10207;50.942;6.900;2024-03-02T00:48:33;1.88;;;1.70;;
20095;SDS011;10207;50.942;6.900;2024-03-02T00:51:02;3.75;;;1.90;;
20095;SDS011;10207;50.942;6.900;2024-03-02T00:53:32;3.40;;;1.70;;
20095;SDS011;10207;50.942;6.900;2024-03-02T00:56:01;3.40;;;1.88;;
20095;SDS011;10207;50.942;6.900;2024-03-02T00:58:27;2.53;;;1.52;;
20095;SDS011;10207;50.942;6.900;2024-03-02T01:00:53;1.40;;;1.27;;
20095;SDS011;10207;50.942;6.900;2024-03-02T01:03:19;1.95;;;1.38;;
20095;SDS011;10207;50.942;6.900;2024-03-02T01:05:45;4.57;;;1.80;;
20095;SDS011;10207;50.942;6.900;2024-03-02T01:08:11;3.20;;;1.70;;
20095;SDS011;10207;50.942;6.900;2024-03-02T01:10:37;2.90;;;1.90;;
20095;SDS011;10207;50.942;6.900;2024-03-02T01:13:03;2.20;;;1.55;;
20095;SDS011;10207;50.942;6.900;2024-03-02T01:15:29;1.83;;;1.40;;
20095;SDS011;10207;50.942;6.900;2024-03-02T01:17:56;3.38;;;1.48;;
20095;SDS011;10207;50.942;6.900;2024-03-02T01:20:22;1.52;;;1.27;;
20095;SDS011;10207;50.942;6.900;2024-03-02T01:22:48;1.45;;;1.27;;
20095;SDS011;10207;50.942;6.900;2024-03-02T01:25:14;2.60;;;1.73;;
20095;SDS011;10207;50.942;6.900;2024-03-02T01:27:40;2.45;;;1.65;;
20095;SDS011;10207;50.942;6.900;2024-03-02T01:30:06;1.92;;;1.58;;
20095;SDS011;10207;50.942;6.900;2024-03-02T01:32:32;2.42;;;1.52;;
20095;SDS011;10207;50.942;6.900;2024-03-02T01:34:58;2.20;;;1.48;;
20095;SDS011;10207;50.942;6.900;2024-03-02T01:37:24;1.83;;;1.30;;
20095;SDS011;10207;50.942;6.900;2024-03-02T01:39:50;1.30;;;1.02;;
20095;SDS011;10207;50.942;6.900;2024-03-02T01:42:16;1.73;;;1.63;;
20095;SDS011;10207;50.942;6.900;2024-03-02T01:44:42;2.22;;;1.52;;
20095;SDS011;10207;50.942;6.900;2024-03-02T01:47:08;3.30;;;1.80;;
20095;SDS011;10207;50.942;6.900;2024-03-02T01:49:34;1.50;;;1.40;;
20095;SDS011;10207;50.942;6.900;2024-03-02T01:52:00;4.50;;;1.38;;
20095;SDS011;10207;50.942;6.900;2024-03-02T01:54:26;3.50;;;1.70;;
20095;SDS011;10207;50.942;6.900;2024-03-02T01:56:52;1.48;;;1.30;;
20095;SDS011;10207;50.942;6.900;2024-03-02T01:59:18;1.90;;;1.60;;
20095;SDS011;10207;50.942;6.900;2024-03-02T02:01:45;1.50;;;1.40;;
20095;SDS011;10207;50.942;6.900;2024-03-02T02:04:11;3.17;;;1.42;;
20095;SDS011;10207;50.942;6.900;2024-03-02T02:06:39;2.38;;;1.17;;
20095;SDS011;10207;50.942;6.900;2024-03-02T02:09:05;1.90;;;1.70;;
20095;SDS011;10207;50.942;6.900;2024-03-02T02:11:32;2.35;;;1.48;;
20095;SDS011;10207;50.942;6.900;2024-03-02T02:13:58;1.90;;;1.58;;
20095;SDS011;10207;50.942;6.900;2024-03-02T02:16:24;1.30;;;1.20;;
20095;SDS011;10207;50.942;6.900;2024-03-02T02:18:50;2.55;;;1.92;;
20095;SDS011;10207;50.942;6.900;2024-03-02T02:21:16;2.17;;;1.50;;
20095;SDS011;10207;50.942;6.900;2024-03-02T02:23:42;2.92;;;1.30;;
20095;SDS011;10207;50.942;6.900;2024-03-02T02:26:12;2.15;;;1.50;;
20095;SDS011;10207;50.942;6.900;2024-03-02T02:28:38;2.50;;;1.90;;
20095;SDS011;10207;50.942;6.900;2024-03-02T02:31:04;2.03;;;1.83;;
20095;SDS011;10207;50.942;6.900;2024-03-02T02:33:30;2.97;;;1.40;;
20095;SDS011;10207;50.942;6.900;2024-03-02T02:35:56;4.80;;;1.40;;
20095;SDS011;10207;50.942;6.900;2024-03-02T02:38:22;1.67;;;1.38;;
20095;SDS011;10207;50.942;6.900;2024-03-02T02:40:48;3.03;;;1.35;;
20095;SDS011;10207;50.942;6.900;2024-03-02T02:43:14;3.92;;;1.50;;
20095;SDS011;10207;50.942;6.900;2024-03-02T02:45:40;3.17;;;1.70;;
20095;SDS011;10207;50.942;6.900;2024-03-02T02:48:06;2.10;;;1.67;;
20095;SDS011;10207;50.942;6.900;2024-03-02T02:50:32;1.90;;;1.52;;
20095;SDS011;10207;50.942;6.900;2024-03-02T02:52:58;7.28;;;1.65;;
20095;SDS011;10207;50.942;6.900;2024-03-02T02:55:24;2.08;;;1.70;;
20095;SDS011;10207;50.942;6.900;2024-03-02T02:57:50;2.17;;;1.42;;
20095;SDS011;10207;50.942;6.900;2024-03-02T03:00:16;2.35;;;1.50;;
20095;SDS011;10207;50.942;6.900;2024-03-02T03:02:45;2.00;;;1.60;;
20095;SDS011;10207;50.942;6.900;2024-03-02T03:05:11;1.92;;;1.55;;
20095;SDS011;10207;50.942;6.900;2024-03-02T03:07:41;1.58;;;1.17;;
20095;SDS011;10207;50.942;6.900;2024-03-02T03:10:07;1.75;;;1.60;;
20095;SDS011;10207;50.942;6.900;2024-03-02T03:12:34;3.70;;;1.60;;
20095;SDS011;10207;50.942;6.900;2024-03-02T03:15:00;2.08;;;1.80;;
20095;SDS011;10207;50.942;6.900;2024-03-02T03:17:26;2.53;;;1.60;;
20095;SDS011;10207;50.942;6.900;2024-03-02T03:19:55;3.28;;;1.73;;
20095;SDS011;10207;50.942;6.900;2024-03-02T03:22:21;1.40;;;1.30;;
20095;SDS011;10207;50.942;6.900;2024-03-02T03:24:48;2.45;;;1.80;;
20095;SDS011;10207;50.942;6.900;2024-03-02T03:27:14;2.60;;;1.80;;
20095;SDS011;10207;50.942;6.900;2024-03-02T03:29:40;3.25;;;1.80;;
20095;SDS011;10207;50.942;6.900;2024-03-02T03:32:06;2.47;;;1.40;;
20095;SDS011;10207;50.942;6.900;2024-03-02T03:34:32;2.80;;;1.40;;
20095;SDS011;10207;50.942;6.900;2024-03-02T03:36:58;2.03;;;1.30;;
20095;SDS011;10207;50.942;6.900;2024-03-02T03:39:24;2.45;;;1.67;;
20095;SDS011;10207;50.942;6.900;2024-03-02T03:41:50;2.78;;;1.30;;
20095;SDS011;10207;50.942;6.900;2024-03-02T03:44:16;1.73;;;1.13;;
20095;SDS011;10207;50.942;6.900;2024-03-02T03:46:43;2.03;;;1.58;;
20095;SDS011;10207;50.942;6.900;2024-03-02T03:49:09;2.60;;;1.40;;
20095;SDS011;10207;50.942;6.900;2024-03-02T03:51:35;2.13;;;1.60;;
20095;SDS011;10207;50.942;6.900;2024-03-02T03:54:01;2.17;;;1.60;;
20095;SDS011;10207;50.942;6.900;2024-03-02T03:56:28;6.53;;;1.35;;
20095;SDS011;10207;50.942;6.900;2024-03-02T03:58:53;3.63;;;1.50;;
20095;SDS011;10207;50.942;6.900;2024-03-02T04:01:19;3.03;;;2.72;;
20095;SDS011;10207;50.942;6.900;2024-03-02T04:03:48;3.25;;;1.60;;
20095;SDS011;10207;50.942;6.900;2024-03-02T04:06:14;2.83;;;1.70;;
20095;SDS011;10207;50.942;6.900;2024-03-02T04:08:42;2.00;;;1.52;;
20095;SDS011;10207;50.942;6.900;2024-03-02T04:11:09;3.30;;;1.83;;
20095;SDS011;10207;50.942;6.900;2024-03-02T04:13:35;4.35;;;1.92;;
20095;SDS011;10207;50.942;6.900;2024-03-02T04:16:01;2.80;;;1.55;;
20095;SDS011;10207;50.942;6.900;2024-03-02T04:18:27;2.17;;;1.65;;
20095;SDS011;10207;50.942;6.900;2024-03-02T04:20:52;3.05;;;1.77;;
20095;SDS011;10207;50.942;6.900;2024-03-02T04:23:18;3.33;;;1.60;;
20095;SDS011;10207;50.942;6.900;2024-03-02T04:25:45;2.38;;;1.25;;
20095;SDS011;10207;50.942;6.900;2024-03-02T04:28:11;4.32;;;1.73;;
20095;SDS011;10207;50.942;6.900;2024-03-02T04:30:38;4.50;;;2.63;;
20095;SDS011;10207;50.942;6.900;2024-03-02T04:33:04;3.30;;;1.70;;
20095;SDS011;10207;50.942;6.900;2024-03-02T04:35:33;2.42;;;1.50;;
20095;SDS011;10207;50.942;6.900;2024-03-02T04:37:59;1.92;;;1.40;;
20095;SDS011;10207;50.942;6.900;2024-03-02T04:40:25;2.03;;;1.42;;
20095;SDS011;10207;50.942;6.900;2024-03-02T04:42:51;2.78;;;1.40;;
20095;SDS011;10207;50.942;6.900;2024-03-02T04:45:17;5.80;;;2.00;;
20095;SDS011;10207;50.942;6.900;2024-03-02T04:47:43;2.35;;;1.60;;
20095;SDS011;10207;50.942;6.900;2024-03-02T04:50:10;2.88;;;1.63;;
20095;SDS011;10207;50.942;6.900;2024-03-02T04:52:36;2.58;;;1.75;;
20095;SDS011;10207;50.942;6.900;2024-03-02T04:55:02;2.92;;;1.80;;
20095;SDS011;10207;50.942;6.900;2024-03-02T04:57:35;2.03;;;1.52;;
20095;SDS011;10207;50.942;6.900;2024-03-02T05:00:01;3.72;;;2.03;;
20095;SDS011;10207;50.942;6.900;2024-03-02T05:02:28;2.53;;;2.33;;
20095;SDS011;10207;50.942;6.900;2024-03-02T05:04:54;2.65;;;1.65;;
20095;SDS011;10207;50.942;6.900;2024-03-02T05:07:20;4.55;;;1.50;;
20095;SDS011;10207;50.942;6.900;2024-03-02T05:09:46;2.17;;;1.40;;
20095;SDS011;10207;50.942;6.900;2024-03-02T05:12:14;2.28;;;1.70;;
20095;SDS011;10207;50.942;6.900;2024-03-02T05:14:58;2.35;;;1.83;;
20095;SDS011;10207;50.942;6.900;2024-03-02T05:17:24;5.57;;;2.05;;
20095;SDS011;10207;50.942;6.900;2024-03-02T05:19:50;4.80;;;2.08;;
20095;SDS011;10207;50.942;6.900;2024-03-02T05:22:16;3.63;;;1.63;;
20095;SDS011;10207;50.942;6.900;2024-03-02T05:24:42;3.17;;;2.17;;
20095;SDS011;10207;50.942;6.900;2024-03-02T05:27:08;3.78;;;1.80;;
20095;SDS011;10207;50.942;6.900;2024-03-02T05:29:34;2.58;;;1.70;;
20095;SDS011;10207;50.942;6.900;2024-03-02T05:32:00;2.25;;;2.05;;
20095;SDS011;10207;50.942;6.900;2024-03-02T05:34:26;1.98;;;1.77;;
20095;SDS011;10207;50.942;6.900;2024-03-02T05:36:53;3.10;;;1.85;;
20095;SDS011;10207;50.942;6.900;2024-03-02T05:39:19;4.78;;;1.90;;
20095;SDS011;10207;50.942;6.900;2024-03-02T05:41:45;4.13;;;1.90;;
20095;SDS011;10207;50.942;6.900;2024-03-02T05:44:11;3.97;;;1.77;;
20095;SDS011;10207;50.942;6.900;2024-03-02T05:46:38;2.45;;;2.05;;
20095;SDS011;10207;50.942;6.900;2024-03-02T05:49:04;2.53;;;1.90;;
20095;SDS011;10207;50.942;6.900;2024-03-02T05:51:30;2.17;;;1.60;;
20095;SDS011;10207;50.942;6.900;2024-03-02T05:53:56;2.97;;;2.20;;
20095;SDS011;10207;50.942;6.900;2024-03-02T05:56:22;2.78;;;1.80;;
20095;SDS011;10207;50.942;6.900;2024-03-02T05:58:48;3.83;;;2.10;;
20095;SDS011;10207;50.942;6.900;2024-03-02T06:01:33;3.88;;;2.45;;
20095;SDS011;10207;50.942;6.900;2024-03-02T06:03:59;2.22;;;1.77;;
20095;SDS011;10207;50.942;6.900;2024-03-02T06:06:25;4.63;;;1.95;;
20095;SDS011;10207;50.942;6.900;2024-03-02T06:08:52;3.33;;;2.90;;
20095;SDS011;10207;50.942;6.900;2024-03-02T06:11:21;2.92;;;1.90;;
20095;SDS011;10207;50.942;6.900;2024-03-02T06:13:47;4.47;;;2.17;;
20095;SDS011;10207;50.942;6.900;2024-03-02T06:16:13;3.78;;;2.10;;
20095;SDS011;10207;50.942;6.900;2024-03-02T06:18:39;2.88;;;2.28;;
20095;SDS011;10207;50.942;6.900;2024-03-02T06:21:06;5.72;;;2.30;;
20095;SDS011;10207;50.942;6.900;2024-03-02T06:23:32;4.38;;;2.50;;
20095;SDS011;10207;50.942;6.900;2024-03-02T06:25:58;3.35;;;2.30;;
20095;SDS011;10207;50.942;6.900;2024-03-02T06:28:24;3.35;;;2.10;;
20095;SDS011;10207;50.942;6.900;2024-03-02T06:30:50;2.25;;;1.75;;
20095;SDS011;10207;50.942;6.900;2024-03-02T06:33:16;5.57;;;2.20;;
20095;SDS011;10207;50.942;6.900;2024-03-02T06:35:42;4.07;;;2.13;;
20095;SDS011;10207;50.942;6.900;2024-03-02T06:38:08;4.97;;;2.45;;
20095;SDS011;10207;50.942;6.900;2024-03-02T06:40:35;4.38;;;2.22;;
20095;SDS011;10207;50.942;6.900;2024-03-02T06:43:03;2.30;;;2.03;;
20095;SDS011;10207;50.942;6.900;2024-03-02T06:45:29;3.15;;;2.28;;
20095;SDS011;10207;50.942;6.900;2024-03-02T06:47:56;4.93;;;2.50;;
20095;SDS011;10207;50.942;6.900;2024-03-02T06:50:22;3.42;;;2.47;;
20095;SDS011;10207;50.942;6.900;2024-03-02T06:52:48;4.63;;;2.38;;
20095;SDS011;10207;50.942;6.900;2024-03-02T06:55:14;3.88;;;2.33;;
20095;SDS011;10207;50.942;6.900;2024-03-02T06:57:40;3.53;;;2.42;;
20095;SDS011;10207;50.942;6.900;2024-03-02T07:00:06;4.30;;;2.30;;
20095;SDS011;10207;50.942;6.900;2024-03-02T07:02:34;3.30;;;2.40;;
20095;SDS011;10207;50.942;6.900;2024-03-02T07:05:02;4.30;;;2.50;;
20095;SDS011;10207;50.942;6.900;2024-03-02T07:07:28;5.68;;;3.15;;
20095;SDS011;10207;50.942;6.900;2024-03-02T07:09:54;4.32;;;2.40;;
20095;SDS011;10207;50.942;6.900;2024-03-02T07:12:20;5.75;;;3.00;;
20095;SDS011;10207;50.942;6.900;2024-03-02T07:14:46;3.35;;;2.00;;
20095;SDS011;10207;50.942;6.900;2024-03-02T07:17:31;4.90;;;2.10;;
20095;SDS011;10207;50.942;6.900;2024-03-02T07:19:57;3.83;;;2.13;;
20095;SDS011;10207;50.942;6.900;2024-03-02T07:22:23;3.08;;;1.85;;
20095;SDS011;10207;50.942;6.900;2024-03-02T07:24:50;5.57;;;2.33;;
20095;SDS011;10207;50.942;6.900;2024-03-02T07:27:16;3.15;;;2.25;;
20095;SDS011;10207;50.942;6.900;2024-03-02T07:29:42;3.63;;;2.00;;
20095;SDS011;10207;50.942;6.900;2024-03-02T07:32:09;6.35;;;2.00;;
20095;SDS011;10207;50.942;6.900;2024-03-02T07:34:35;4.35;;;2.30;;
20095;SDS011;10207;50.942;6.900;2024-03-02T07:37:01;3.42;;;2.15;;
20095;SDS011;10207;50.942;6.900;2024-03-02T07:39:28;3.25;;;2.20;;
20095;SDS011;10207;50.942;6.900;2024-03-02T07:41:55;3.75;;;1.92;;
20095;SDS011;10207;50.942;6.900;2024-03-02T07:44:21;3.35;;;2.10;;
20095;SDS011;10207;50.942;6.900;2024-03-02T07:46:47;4.10;;;2.17;;
20095;SDS011;10207;50.942;6.900;2024-03-02T07:49:15;2.20;;;1.70;;
20095;SDS011;10207;50.942;6.900;2024-03-02T07:51:42;3.47;;;1.98;;
20095;SDS011;10207;50.942;6.900;2024-03-02T07:54:08;3.60;;;1.60;;
20095;SDS011;10207;50.942;6.900;2024-03-02T07:56:34;2.63;;;2.08;;
20095;SDS011;10207;50.942;6.900;2024-03-02T07:59:01;3.58;;;1.83;;
20095;SDS011;10207;50.942;6.900;2024-03-02T08:01:30;4.20;;;2.00;;
20095;SDS011;10207;50.942;6.900;2024-03-02T08:03:57;3.33;;;2.10;;
20095;SDS011;10207;50.942;6.900;2024-03-02T08:06:24;4.45;;;2.10;;
20095;SDS011;10207;50.942;6.900;2024-03-02T08:08:53;5.22;;;1.60;;
20095;SDS011;10207;50.942;6.900;2024-03-02T08:11:20;6.53;;;1.80;;
20095;SDS011;10207;50.942;6.900;2024-03-02T08:13:47;4.75;;;2.03;;
20095;SDS011;10207;50.942;6.900;2024-03-02T08:16:13;4.35;;;1.42;;
20095;SDS011;10207;50.942;6.900;2024-03-02T08:18:39;2.22;;;1.58;;
20095;SDS011;10207;50.942;6.900;2024-03-02T08:21:05;3.58;;;1.65;;
20095;SDS011;10207;50.942;6.900;2024-03-02T08:23:34;6.82;;;1.80;;
20095;SDS011;10207;50.942;6.900;2024-03-02T08:26:00;2.50;;;1.50;;
20095;SDS011;10207;50.942;6.900;2024-03-02T08:28:26;4.00;;;1.95;;
20095;SDS011;10207;50.942;6.900;2024-03-02T08:30:52;2.50;;;1.38;;
20095;SDS011;10207;50.942;6.900;2024-03-02T08:33:18;1.20;;;1.10;;
20095;SDS011;10207;50.942;6.900;2024-03-02T08:35:45;3.97;;;1.50;;
20095;SDS011;10207;50.942;6.900;2024-03-02T08:38:11;2.28;;;1.35;;
20095;SDS011;10207;50.942;6.900;2024-03-02T08:40:37;2.10;;;1.50;;
20095;SDS011;10207;50.942;6.900;2024-03-02T08:43:03;3.90;;;1.65;;
20095;SDS011;10207;50.942;6.900;2024-03-02T08:45:29;1.20;;;1.10;;
20095;SDS011;10207;50.942;6.900;2024-03-02T08:47:55;2.33;;;1.55;;
20095;SDS011;10207;50.942;6.900;2024-03-02T08:50:21;1.15;;;1.10;;
20095;SDS011;10207;50.942;6.900;2024-03-02T08:52:47;1.38;;;1.27;;
20095;SDS011;10207;50.942;6.900;2024-03-02T08:55:13;2.53;;;1.67;;
20095;SDS011;10207;50.942;6.900;2024-03-02T08:57:40;2.03;;;1.30;;
20095;SDS011;10207;50.942;6.900;2024-03-02T09:00:08;3.15;;;1.35;;
20095;SDS011;10207;50.942;6.900;2024-03-02T09:02:34;2.95;;;1.65;;
20095;SDS011;10207;50.942;6.900;2024-03-02T09:04:59;1.63;;;1.27;;
20095;SDS011;10207;50.942;6.900;2024-03-02T09:07:26;1.45;;;0.90;;
20095;SDS011;10207;50.942;6.900;2024-03-02T09:09:52;1.83;;;1.20;;
20095;SDS011;10207;50.942;6.900;2024-03-02T09:12:18;2.90;;;1.27;;
20095;SDS011;10207;50.942;6.900;2024-03-02T09:14:44;3.53;;;1.40;;
20095;SDS011;10207;50.942;6.900;2024-03-02T09:17:10;5.68;;;1.55;;
20095;SDS011;10207;50.942;6.900;2024-03-02T09:19:37;1.52;;;1.20;;
20095;SDS011;10207;50.942;6.900;2024-03-02T09:22:04;2.97;;;1.23;;
20095;SDS011;10207;50.942;6.900;2024-03-02T09:24:31;1.63;;;1.00;;
20095;SDS011;10207;50.942;6.900;2024-03-02T09:26:57;4.65;;;1.30;;
20095;SDS011;10207;50.942;6.900;2024-03-02T09:29:23;4.00;;;1.50;;
20095;SDS011;10207;50.942;6.900;2024-03-02T09:31:49;1.88;;;1.33;;
20095;SDS011;10207;50.942;6.900;2024-03-02T09:34:16;1.75;;;1.23;;
20095;SDS011;10207;50.942;6.900;2024-03-02T09:36:42;1.75;;;1.27;;
20095;SDS011;10207;50.942;6.900;2024-03-02T09:39:08;1.13;;;1.00;;
20095;SDS011;10207;50.942;6.900;2024-03-02T09:41:38;2.55;;;1.20;;
20095;SDS011;10207;50.942;6.900;2024-03-02T09:44:04;2.80;;;1.08;;
20095;SDS011;10207;50.942;6.900;2024-03-02T09:46:30;1.35;;;1.05;;
20095;SDS011;10207;50.942;6.900;2024-03-02T09:48:56;4.00;;;1.20;;
20095;SDS011;10207;50.942;6.900;2024-03-02T09:51:22;3.85;;;1.20;;
20095;SDS011;10207;50.942;6.900;2024-03-02T09:53:49;1.60;;;1.27;;
20095;SDS011;10207;50.942;6.900;2024-03-02T09:56:15;1.60;;;1.15;;
20095;SDS011;10207;50.942;6.900;2024-03-02T09:58:44;3.17;;;1.42;;
20095;SDS011;10207;50.942;6.900;2024-03-02T10:01:10;3.38;;;1.30;;
20095;SDS011;10207;50.942;6.900;2024-03-02T10:03:37;2.05;;;1.17;;
20095;SDS011;10207;50.942;6.900;2024-03-02T10:06:22;3.83;;;1.60;;
20095;SDS011;10207;50.942;6.900;2024-03-02T10:08:48;1.90;;;1.05;;
20095;SDS011;10207;50.942;6.900;2024-03-02T10:11:27;1.73;;;1.20;;
20095;SDS011;10207;50.942;6.900;2024-03-02T10:14:06;2.53;;;1.60;;
20095;SDS011;10207;50.942;6.900;2024-03-02T10:16:39;3.33;;;1.48;;
20095;SDS011;10207;50.942;6.900;2024-03-02T10:19:18;1.85;;;1.20;;
20095;SDS011;10207;50.942;6.900;2024-03-02T10:21:51;1.92;;;1.23;;
20095;SDS011;10207;50.942;6.900;2024-03-02T10:24:17;2.72;;;1.63;;
20095;SDS011;10207;50.942;6.900;2024-03-02T10:26:43;5.70;;;1.90;;
20095;SDS011;10207;50.942;6.900;2024-03-02T10:29:10;3.17;;;2.00;;
20095;SDS011;10207;50.942;6.900;2024-03-02T10:31:43;11.68;;;1.55;;
20095;SDS011;10207;50.942;6.900;2024-03-02T10:34:09;3.30;;;1.73;;
20095;SDS011;10207;50.942;6.900;2024-03-02T10:36:36;2.25;;;1.45;;
20095;SDS011;10207;50.942;6.900;2024-03-02T10:39:03;3.40;;;1.80;;
20095;SDS011;10207;50.942;6.900;2024-03-02T10:41:33;3.80;;;1.55;;
20095;SDS011;10207;50.942;6.900;2024-03-02T10:44:03;2.85;;;1.45;;
20095;SDS011;10207;50.942;6.900;2024-03-02T10:46:30;3.10;;;1.52;;
20095;SDS011;10207;50.942;6.900;2024-03-02T10:48:57;3.65;;;2.00;;
20095;SDS011;10207;50.942;6.900;2024-03-02T10:51:28;3.28;;;1.50;;
20095;SDS011;10207;50.942;6.900;2024-03-02T10:53:57;1.45;;;0.88;;
20095;SDS011;10207;50.942;6.900;2024-03-02T10:56:42;1.40;;;1.20;;
20095;SDS011;10207;50.942;6.900;2024-03-02T11:01:38;3.10;;;1.15;;
20095;SDS011;10207;50.942;6.900;2024-03-02T11:04:04;2.60;;;1.73;;
20095;SDS011;10207;50.942;6.900;2024-03-02T11:06:33;3.35;;;1.45;;
20095;SDS011;10207;50.942;6.900;2024-03-02T11:09:05;2.67;;;1.27;;
20095;SDS011;10207;50.942;6.900;2024-03-02T11:11:32;2.63;;;1.65;;
20095;SDS011;10207;50.942;6.900;2024-03-02T11:14:01;3.13;;;1.63;;
20095;SDS011;10207;50.942;6.900;2024-03-02T11:16:37;4.85;;;1.27;;
20095;SDS011;10207;50.942;6.900;2024-03-02T11:19:05;1.48;;;1.27;;
20095;SDS011;10207;50.942;6.900;2024-03-02T11:21:33;3.10;;;1.85;;
20095;SDS011;10207;50.942;6.900;2024-03-02T11:23:59;3.60;;;2.00;;
20095;SDS011;10207;50.942;6.900;2024-03-02T11:26:25;1.73;;;1.25;;
20095;SDS011;10207;50.942;6.900;2024-03-02T11:28:51;1.85;;;1.17;;
20095;SDS011;10207;50.942;6.900;2024-03-02T11:31:17;1.70;;;1.40;;
20095;SDS011;10207;50.942;6.900;2024-03-02T11:33:43;3.55;;;1.40;;
20095;SDS011;10207;50.942;6.900;2024-03-02T11:36:09;4.22;;;1.60;;
20095;SDS011;10207;50.942;6.900;2024-03-02T11:38:35;5.82;;;1.40;;
20095;SDS011;10207;50.942;6.900;2024-03-02T11:41:02;2.55;;;1.65;;
20095;SDS011;10207;50.942;6.900;2024-03-02T11:43:29;2.65;;;1.80;;
20095;SDS011;10207;50.942;6.900;2024-03-02T11:45:58;5.85;;;2.13;;
20095;SDS011;10207;50.942;6.900;2024-03-02T11:48:25;3.53;;;1.80;;
20095;SDS011;10207;50.942;6.900;2024-03-02T11:50:52;2.42;;;1.92;;
20095;SDS011;10207;50.942;6.900;2024-03-02T11:53:18;1.88;;;1.42;;
20095;SDS011;10207;50.942;6.900;2024-03-02T11:55:44;2.50;;;1.80;;
20095;SDS011;10207;50.942;6.900;2024-03-02T11:58:14;3.38;;;1.50;;
20095;SDS011;10207;50.942;6.900;2024-03-02T12:00:40;2.50;;;1.65;;
20095;SDS011;10207;50.942;6.900;2024-03-02T12:03:06;2.30;;;1.38;;
20095;SDS011;10207;50.942;6.900;2024-03-02T12:05:33;1.13;;;0.98;;
20095;SDS011;10207;50.942;6.900;2024-03-02T12:08:00;2.53;;;1.60;;
20095;SDS011;10207;50.942;6.900;2024-03-02T12:10:26;3.00;;;1.55;;
20095;SDS011;10207;50.942;6.900;2024-03-02T12:12:56;1.88;;;1.17;;
20095;SDS011;10207;50.942;6.900;2024-03-02T12:15:23;2.17;;;1.40;;
20095;SDS011;10207;50.942;6.900;2024-03-02T12:17:52;1.73;;;1.30;;
20095;SDS011;10207;50.942;6.900;2024-03-02T12:20:18;1.50;;;1.20;;
20095;SDS011;10207;50.942;6.900;2024-03-02T12:22:44;2.53;;;1.10;;
20095;SDS011;10207;50.942;6.900;2024-03-02T12:25:10;1.25;;;1.08;;
20095;SDS011;10207;50.942;6.900;2024-03-02T12:27:36;3.92;;;1.40;;
20095;SDS011;10207;50.942;6.900;2024-03-02T12:30:02;2.67;;;1.55;;
20095;SDS011;10207;50.942;6.900;2024-03-02T12:32:29;5.20;;;1.77;;
20095;SDS011;10207;50.942;6.900;2024-03-02T12:34:55;2.30;;;1.58;;
20095;SDS011;10207;50.942;6.900;2024-03-02T12:37:21;1.40;;;1.30;;
20095;SDS011;10207;50.942;6.900;2024-03-02T12:39:47;2.45;;;1.42;;
20095;SDS011;10207;50.942;6.900;2024-03-02T12:42:13;1.42;;;0.90;;
20095;SDS011;10207;50.942;6.900;2024-03-02T12:44:39;1.88;;;1.40;;
20095;SDS011;10207;50.942;6.900;2024-03-02T12:47:05;1.20;;;1.10;;
20095;SDS011;10207;50.942;6.900;2024-03-02T12:49:32;2.08;;;1.48;;
20095;SDS011;10207;50.942;6.900;2024-03-02T12:51:58;4.32;;;1.33;;
20095;SDS011;10207;50.942;6.900;2024-03-02T12:54:24;3.83;;;1.50;;
20095;SDS011;10207;50.942;6.900;2024-03-02T12:56:51;1.25;;;1.10;;
20095;SDS011;10207;50.942;6.900;2024-03-02T12:59:20;1.00;;;1.00;;
20095;SDS011;10207;50.942;6.900;2024-03-02T13:01:50;1.27;;;1.17;;
20095;SDS011;10207;50.942;6.900;2024-03-02T13:04:16;2.45;;;1.50;;
20095;SDS011;10207;50.942;6.900;2024-03-02T13:06:42;1.20;;;1.10;;
20095;SDS011;10207;50.942;6.900;2024-03-02T13:09:08;2.40;;;1.23;;
20095;SDS011;10207;50.942;6.900;2024-03-02T13:11:41;1.48;;;1.30;;
20095;SDS011;10207;50.942;6.900;2024-03-02T13:14:07;2.20;;;1.30;;
20095;SDS011;10207;50.942;6.900;2024-03-02T13:16:38;2.55;;;1.30;;
20095;SDS011;10207;50.942;6.900;2024-03-02T13:19:07;3.33;;;1.50;;
20095;SDS011;10207;50.942;6.900;2024-03-02T13:21:33;1.20;;;1.20;;
20095;SDS011;10207;50.942;6.900;2024-03-02T13:23:59;1.20;;;1.10;;
20095;SDS011;10207;50.942;6.900;2024-03-02T13:26:25;1.65;;;1.45;;
20095;SDS011;10207;50.942;6.900;2024-03-02T13:28:51;1.13;;;1.02;;
20095;SDS011;10207;50.942;6.900;2024-03-02T13:31:17;1.95;;;1.65;;
20095;SDS011;10207;50.942;6.900;2024-03-02T13:33:43;1.45;;;1.20;;
20095;SDS011;10207;50.942;6.900;2024-03-02T13:36:09;1.73;;;0.90;;
20095;SDS011;10207;50.942;6.900;2024-03-02T13:38:35;3.28;;;1.77;;
20095;SDS011;10207;50.942;6.900;2024-03-02T13:41:01;1.90;;;1.20;;
20095;SDS011;10207;50.942;6.900;2024-03-02T13:43:27;1.10;;;0.98;;
20095;SDS011;10207;50.942;6.900;2024-03-02T13:45:57;1.17;;;1.13;;
20095;SDS011;10207;50.942;6.900;2024-03-02T13:48:23;1.00;;;1.00;;
20095;SDS011;10207;50.942;6.900;2024-03-02T13:50:52;2.55;;;1.15;;
20095;SDS011;10207;50.942;6.900;2024-03-02T13:53:21;1.42;;;1.30;;
20095;SDS011;10207;50.942;6.900;2024-03-02T13:55:47;1.23;;;1.13;;
20095;SDS011;10207;50.942;6.900;2024-03-02T13:58:13;1.20;;;1.10;;
20095;SDS011;10207;50.942;6.900;2024-03-02T14:00:39;1.35;;;1.30;;
20095;SDS011;10207;50.942;6.900;2024-03-02T14:03:05;1.60;;;1.10;;
20095;SDS011;10207;50.942;6.900;2024-03-02T14:05:32;1.52;;;1.13;;
20095;SDS011;10207;50.942;6.900;2024-03-02T14:07:58;1.42;;;1.30;;
20095;SDS011;10207;50.942;6.900;2024-03-02T14:10:26;2.25;;;1.20;;
20095;SDS011;10207;50.942;6.900;2024-03-02T14:12:52;1.00;;;1.00;;
20095;SDS011;10207;50.942;6.900;2024-03-02T14:15:18;2.40;;;1.38;;
20095;SDS011;10207;50.942;6.900;2024-03-02T14:17:44;3.08;;;1.20;;
20095;SDS011;10207;50.942;6.900;2024-03-02T14:20:10;2.20;;;1.35;;
20095;SDS011;10207;50.942;6.900;2024-03-02T14:22:38;1.13;;;1.10;;
20095;SDS011;10207;50.942;6.900;2024-03-02T14:25:04;2.40;;;1.08;;
20095;SDS011;10207;50.942;6.900;2024-03-02T14:27:30;3.38;;;1.42;;
20095;SDS011;10207;50.942;6.900;2024-03-02T14:29:55;1.77;;;1.27;;
20095;SDS011;10207;50.942;6.900;2024-03-02T14:32:22;1.48;;;1.02;;
20095;SDS011;10207;50.942;6.900;2024-03-02T14:34:48;1.50;;;1.40;;
20095;SDS011;10207;50.942;6.900;2024-03-02T14:37:14;1.65;;;1.33;;
20095;SDS011;10207;50.942;6.900;2024-03-02T14:39:40;1.58;;;1.10;;
20095;SDS011;10207;50.942;6.900;2024-03-02T14:42:07;2.50;;;1.58;;
20095;SDS011;10207;50.942;6.900;2024-03-02T14:44:33;2.13;;;1.60;;
20095;SDS011;10207;50.942;6.900;2024-03-02T14:47:02;2.42;;;1.20;;
20095;SDS011;10207;50.942;6.900;2024-03-02T14:49:30;1.48;;;1.13;;
20095;SDS011;10207;50.942;6.900;2024-03-02T14:51:56;3.47;;;1.50;;
20095;SDS011;10207;50.942;6.900;2024-03-02T14:54:22;1.45;;;1.20;;